sensor_id;sensor_type;location;lat;lon;timestamp;pressure;altitude;pressure_sealevel;temperature;humidity
74631;BME280;63138;55.082;38.804;2024-01-07T00:00:03;99949.66;;;-19.78;100.00
74631;BME280;63138;55.082;38.804;2024-01-07T00:02:31;99956.53;;;-19.78;100.00
74631;BME280;63138;55.082;38.804;2024-01-07T00:04:57;99965.16;;;-19.78;100.00
74631;BME280;63138;55.082;38.804;2024-01-07T00:07:30;99965.19;;;-19.76;100.00
74631;BME280;63138;55.082;38.804;2024-01-07T00:09:57;99964.28;;;-19.80;100.00
74631;BME280;63138;55.082;38.804;2024-01-07T00:12:23;99975.47;;;-19.82;100.00
74631;BME280;63138;55.082;38.804;2024-01-07T00:14:51;99974.56;;;-19.86;100.00
74631;BME280;63138;55.082;38.804;2024-01-07T00:17:16;99984.91;;;-19.89;100.00
74631;BME280;63138;55.082;38.804;2024-01-07T00:19:42;99987.44;;;-19.92;100.00
74631;BME280;63138;55.082;38.804;2024-01-07T00:22:08;99988.28;;;-19.96;100.00
74631;BME280;63138;55.082;38.804;2024-01-07T00:24:35;99985.59;;;-20.04;100.00
74631;BME280;63138;55.082;38.804;2024-01-07T00:27:01;99992.50;;;-20.05;100.00
74631;BME280;63138;55.082;38.804;2024-01-07T00:29:27;99999.38;;;-20.08;100.00
74631;BME280;63138;55.082;38.804;2024-01-07T00:31:53;100000.19;;;-20.14;100.00
74631;BME280;63138;55.082;38.804;2024-01-07T00:34:19;99994.97;;;-20.17;100.00
74631;BME280;63138;55.082;38.804;2024-01-07T00:36:45;100001.00;;;-20.19;100.00
74631;BME280;63138;55.082;38.804;2024-01-07T00:39:11;100008.69;;;-20.24;100.00
74631;BME280;63138;55.082;38.804;2024-01-07T00:41:37;100017.31;;;-20.25;100.00
74631;BME280;63138;55.082;38.804;2024-01-07T00:44:03;100027.59;;;-20.28;100.00
74631;BME280;63138;55.082;38.804;2024-01-07T00:46:29;100023.25;;;-20.31;100.00
74631;BME280;63138;55.082;38.804;2024-01-07T00:48:55;100027.50;;;-20.34;100.00
74631;BME280;63138;55.082;38.804;2024-01-07T00:51:21;100023.19;;;-20.37;100.00
74631;BME280;63138;55.082;38.804;2024-01-07T00:53:47;100034.34;;;-20.38;100.00
74631;BME280;63138;55.082;38.804;2024-01-07T00:56:13;100030.03;;;-20.40;100.00
74631;BME280;63138;55.082;38.804;2024-01-07T00:58:39;100048.13;;;-20.40;100.00
74631;BME280;63138;55.082;38.804;2024-01-07T01:01:05;100048.09;;;-20.42;100.00
74631;BME280;63138;55.082;38.804;2024-01-07T01:03:31;100045.47;;;-20.45;100.00
74631;BME280;63138;55.082;38.804;2024-01-07T01:05:58;100037.72;;;-20.47;100.00
74631;BME280;63138;55.082;38.804;2024-01-07T01:08:24;100042.91;;;-20.47;100.00
74631;BME280;63138;55.082;38.804;2024-01-07T01:10:50;100041.16;;;-20.48;100.00
74631;BME280;63138;55.082;38.804;2024-01-07T01:13:16;100047.16;;;-20.49;100.00
74631;BME280;63138;55.082;38.804;2024-01-07T01:15:42;100048.03;;;-20.50;100.00
74631;BME280;63138;55.082;38.804;2024-01-07T01:18:08;100040.25;;;-20.51;100.00
74631;BME280;63138;55.082;38.804;2024-01-07T01:20:34;100053.22;;;-20.48;100.00
74631;BME280;63138;55.082;38.804;2024-01-07T01:23:00;100061.78;;;-20.51;100.00
74631;BME280;63138;55.082;38.804;2024-01-07T01:25:26;100063.50;;;-20.51;100.00
74631;BME280;63138;55.082;38.804;2024-01-07T01:27:52;100071.22;;;-20.53;100.00
74631;BME280;63138;55.082;38.804;2024-01-07T01:30:19;100064.25;;;-20.60;100.00
74631;BME280;63138;55.082;38.804;2024-01-07T01:32:45;100062.53;;;-20.58;100.00
74631;BME280;63138;55.082;38.804;2024-01-07T01:35:11;100072.91;;;-20.55;100.00
74631;BME280;63138;55.082;38.804;2024-01-07T01:37:37;100085.88;;;-20.52;100.00
74631;BME280;63138;55.082;38.804;2024-01-07T01:40:04;100085.00;;;-20.52;100.00
74631;BME280;63138;55.082;38.804;2024-01-07T01:42:31;100090.16;;;-20.52;100.00
74631;BME280;63138;55.082;38.804;2024-01-07T01:44:57;100081.53;;;-20.54;100.00
74631;BME280;63138;55.082;38.804;2024-01-07T01:47:31;100093.59;;;-20.55;100.00
74631;BME280;63138;55.082;38.804;2024-01-07T01:49:58;100091.84;;;-20.56;100.00
74631;BME280;63138;55.082;38.804;2024-01-07T01:52:24;100090.97;;;-20.61;100.00
74631;BME280;63138;55.082;38.804;2024-01-07T01:54:51;100097.81;;;-20.60;100.00
74631;BME280;63138;55.082;38.804;2024-01-07T01:57:20;100109.91;;;-20.59;100.00
74631;BME280;63138;55.082;38.804;2024-01-07T01:59:48;100098.66;;;-20.64;100.00
74631;BME280;63138;55.082;38.804;2024-01-07T02:02:14;100116.69;;;-20.67;100.00
74631;BME280;63138;55.082;38.804;2024-01-07T02:04:41;100113.22;;;-20.69;100.00
74631;BME280;63138;55.082;38.804;2024-01-07T02:07:07;100110.59;;;-20.72;100.00
74631;BME280;63138;55.082;38.804;2024-01-07T02:09:33;100123.44;;;-20.77;100.00
74631;BME280;63138;55.082;38.804;2024-01-07T02:12:03;100118.19;;;-20.83;100.00
74631;BME280;63138;55.082;38.804;2024-01-07T02:14:31;100120.72;;;-20.88;100.00
74631;BME280;63138;55.082;38.804;2024-01-07T02:16:58;100122.38;;;-20.91;100.00
74631;BME280;63138;55.082;38.804;2024-01-07T02:19:24;100136.97;;;-20.95;100.00
74631;BME280;63138;55.082;38.804;2024-01-07T02:21:51;100131.75;;;-20.98;100.00
74631;BME280;63138;55.082;38.804;2024-01-07T02:24:18;100126.44;;;-21.07;100.00
74631;BME280;63138;55.082;38.804;2024-01-07T02:26:44;100147.94;;;-21.07;100.00
74631;BME280;63138;55.082;38.804;2024-01-07T02:29:10;100141.84;;;-21.12;100.00
74631;BME280;63138;55.082;38.804;2024-01-07T02:31:36;100151.28;;;-21.14;100.00
74631;BME280;63138;55.082;38.804;2024-01-07T02:34:03;100152.09;;;-21.16;100.00
74631;BME280;63138;55.082;38.804;2024-01-07T02:36:29;100150.34;;;-21.21;100.00
74631;BME280;63138;55.082;38.804;2024-01-07T02:38:54;100157.16;;;-21.23;100.00
74631;BME280;63138;55.082;38.804;2024-01-07T02:41:20;100161.41;;;-21.25;100.00
74631;BME280;63138;55.082;38.804;2024-01-07T02:43:51;100169.13;;;-21.26;100.00
74631;BME280;63138;55.082;38.804;2024-01-07T02:46:17;100171.72;;;-21.28;100.00
74631;BME280;63138;55.082;38.804;2024-01-07T02:48:43;100171.63;;;-21.32;100.00
74631;BME280;63138;55.082;38.804;2024-01-07T02:51:08;100170.69;;;-21.36;100.00
74631;BME280;63138;55.082;38.804;2024-01-07T02:53:34;100179.22;;;-21.40;100.00
74631;BME280;63138;55.082;38.804;2024-01-07T02:56:00;100175.75;;;-21.42;100.00
74631;BME280;63138;55.082;38.804;2024-01-07T02:58:26;100186.03;;;-21.45;100.00
74631;BME280;63138;55.082;38.804;2024-01-07T03:00:52;100186.84;;;-21.49;100.00
74631;BME280;63138;55.082;38.804;2024-01-07T03:03:18;100191.97;;;-21.51;100.00
74631;BME280;63138;55.082;38.804;2024-01-07T03:05:44;100199.75;;;-21.49;100.00
74631;BME280;63138;55.082;38.804;2024-01-07T03:08:10;100204.84;;;-21.52;100.00
74631;BME280;63138;55.082;38.804;2024-01-07T03:10:36;100211.69;;;-21.54;100.00
74631;BME280;63138;55.082;38.804;2024-01-07T03:13:01;100217.59;;;-21.59;100.00
74631;BME280;63138;55.082;38.804;2024-01-07T03:15:28;100219.25;;;-21.64;100.00
74631;BME280;63138;55.082;38.804;2024-01-07T03:17:56;100215.69;;;-21.69;100.00
74631;BME280;63138;55.082;38.804;2024-01-07T03:20:22;100216.47;;;-21.73;100.00
74631;BME280;63138;55.082;38.804;2024-01-07T03:22:48;100231.94;;;-21.73;100.00
74631;BME280;63138;55.082;38.804;2024-01-07T03:25:14;100228.44;;;-21.75;100.00
74631;BME280;63138;55.082;38.804;2024-01-07T03:27:40;100231.88;;;-21.76;100.00
74631;BME280;63138;55.082;38.804;2024-01-07T03:30:07;100230.13;;;-21.77;100.00
74631;BME280;63138;55.082;38.804;2024-01-07T03:32:34;100232.69;;;-21.79;100.00
74631;BME280;63138;55.082;38.804;2024-01-07T03:35:00;100234.41;;;-21.79;100.00
74631;BME280;63138;55.082;38.804;2024-01-07T03:37:29;100234.31;;;-21.82;100.00
74631;BME280;63138;55.082;38.804;2024-01-07T03:39:55;100239.47;;;-21.82;100.00
74631;BME280;63138;55.082;38.804;2024-01-07T03:42:22;100232.53;;;-21.86;100.00
74631;BME280;63138;55.082;38.804;2024-01-07T03:44:48;100235.03;;;-21.89;100.00
74631;BME280;63138;55.082;38.804;2024-01-07T03:47:14;100243.66;;;-21.89;100.00
74631;BME280;63138;55.082;38.804;2024-01-07T03:49:40;100247.88;;;-21.92;100.00
74631;BME280;63138;55.082;38.804;2024-01-07T03:52:06;100248.59;;;-22.00;100.00
74631;BME280;63138;55.082;38.804;2024-01-07T03:54:32;100243.28;;;-22.06;100.00
74631;BME280;63138;55.082;38.804;2024-01-07T03:56:58;100254.41;;;-22.08;100.00
74631;BME280;63138;55.082;38.804;2024-01-07T03:59:24;100259.50;;;-22.11;100.00
74631;BME280;63138;55.082;38.804;2024-01-07T04:01:53;100271.47;;;-22.13;100.00
74631;BME280;63138;55.082;38.804;2024-01-07T04:04:19;100260.19;;;-22.19;100.00
74631;BME280;63138;55.082;38.804;2024-01-07T04:06:45;100264.44;;;-22.21;100.00
74631;BME280;63138;55.082;38.804;2024-01-07T04:09:11;100264.34;;;-22.25;100.00
74631;BME280;63138;55.082;38.804;2024-01-07T04:11:41;100273.78;;;-22.27;100.00
74631;BME280;63138;55.082;38.804;2024-01-07T04:14:08;100273.66;;;-22.33;100.00
74631;BME280;63138;55.082;38.804;2024-01-07T04:16:34;100282.16;;;-22.38;100.00
74631;BME280;63138;55.082;38.804;2024-01-07T04:19:01;100287.13;;;-22.44;100.00
74631;BME280;63138;55.082;38.804;2024-01-07T04:21:27;100291.31;;;-22.49;100.00
74631;BME280;63138;55.082;38.804;2024-01-07T04:23:53;100292.94;;;-22.52;100.00
74631;BME280;63138;55.082;38.804;2024-01-07T04:26:19;100312.59;;;-22.56;100.00
74631;BME280;63138;55.082;38.804;2024-01-07T04:28:45;100313.31;;;-22.62;100.00
74631;BME280;63138;55.082;38.804;2024-01-07T04:31:11;100308.13;;;-22.63;100.00
74631;BME280;63138;55.082;38.804;2024-01-07T04:33:37;100297.69;;;-22.69;100.00
74631;BME280;63138;55.082;38.804;2024-01-07T04:36:03;100314.00;;;-22.69;100.00
74631;BME280;63138;55.082;38.804;2024-01-07T04:38:33;100321.75;;;-22.67;100.00
74631;BME280;63138;55.082;38.804;2024-01-07T04:40:58;100326.88;;;-22.69;100.00
74631;BME280;63138;55.082;38.804;2024-01-07T04:43:24;100323.31;;;-22.74;100.00
74631;BME280;63138;55.082;38.804;2024-01-07T04:45:50;100331.91;;;-22.73;100.00
74631;BME280;63138;55.082;38.804;2024-01-07T04:48:16;100352.41;;;-22.77;100.00
74631;BME280;63138;55.082;38.804;2024-01-07T04:50:42;100348.75;;;-22.85;100.00
74631;BME280;63138;55.082;38.804;2024-01-07T04:53:09;100367.53;;;-22.89;100.00
74631;BME280;63138;55.082;38.804;2024-01-07T04:55:36;100358.81;;;-22.94;100.00
74631;BME280;63138;55.082;38.804;2024-01-07T04:58:02;100357.75;;;-23.02;100.00
74631;BME280;63138;55.082;38.804;2024-01-07T05:00:29;100367.13;;;-23.06;100.00
74631;BME280;63138;55.082;38.804;2024-01-07T05:02:55;100373.06;;;-23.08;100.00
74631;BME280;63138;55.082;38.804;2024-01-07T05:05:21;100379.75;;;-23.14;100.00
74631;BME280;63138;55.082;38.804;2024-01-07T05:07:48;100390.84;;;-23.16;100.00
74631;BME280;63138;55.082;38.804;2024-01-07T05:10:13;100388.13;;;-23.21;100.00
74631;BME280;63138;55.082;38.804;2024-01-07T05:12:40;100392.28;;;-23.26;100.00
74631;BME280;63138;55.082;38.804;2024-01-07T05:15:07;100405.94;;;-23.28;100.00
74631;BME280;63138;55.082;38.804;2024-01-07T05:17:33;100399.84;;;-23.32;100.00
74631;BME280;63138;55.082;38.804;2024-01-07T05:19:59;100404.81;;;-23.38;100.00
74631;BME280;63138;55.082;38.804;2024-01-07T05:22:25;100417.56;;;-23.41;100.00
74631;BME280;63138;55.082;38.804;2024-01-07T05:24:51;100406.38;;;-23.43;100.00
74631;BME280;63138;55.082;38.804;2024-01-07T05:27:16;100403.75;;;-23.45;100.00
74631;BME280;63138;55.082;38.804;2024-01-07T05:29:46;100410.59;;;-23.45;100.00
74631;BME280;63138;55.082;38.804;2024-01-07T05:32:37;100408.09;;;-23.42;100.00
74631;BME280;63138;55.082;38.804;2024-01-07T05:35:03;100412.38;;;-23.43;100.00
74631;BME280;63138;55.082;38.804;2024-01-07T05:37:29;100408.09;;;-23.42;100.00
74631;BME280;63138;55.082;38.804;2024-01-07T05:39:56;100400.34;;;-23.44;100.00
74631;BME280;63138;55.082;38.804;2024-01-07T05:42:22;100413.34;;;-23.39;100.00
74631;BME280;63138;55.082;38.804;2024-01-07T05:44:48;100417.53;;;-23.43;100.00
74631;BME280;63138;55.082;38.804;2024-01-07T05:47:14;100426.09;;;-23.42;100.00
74631;BME280;63138;55.082;38.804;2024-01-07T05:49:40;100420.88;;;-23.45;100.00
74631;BME280;63138;55.082;38.804;2024-01-07T05:52:05;100437.28;;;-23.40;100.00
74631;BME280;63138;55.082;38.804;2024-01-07T05:54:31;100440.72;;;-23.41;100.00
74631;BME280;63138;55.082;38.804;2024-01-07T05:56:58;100452.72;;;-23.40;100.00
74631;BME280;63138;55.082;38.804;2024-01-07T05:59:24;100467.44;;;-23.36;100.00
74631;BME280;63138;55.082;38.804;2024-01-07T06:01:50;100478.72;;;-23.31;100.00
74631;BME280;63138;55.082;38.804;2024-01-07T06:04:16;100480.66;;;-23.24;100.00
74631;BME280;63138;55.082;38.804;2024-01-07T06:06:42;100476.38;;;-23.23;100.00
74631;BME280;63138;55.082;38.804;2024-01-07T06:09:08;100479.06;;;-23.19;100.00
74631;BME280;63138;55.082;38.804;2024-01-07T06:11:34;100483.41;;;-23.18;100.00
74631;BME280;63138;55.082;38.804;2024-01-07T06:14:00;100480.81;;;-23.18;100.00
74631;BME280;63138;55.082;38.804;2024-01-07T06:16:26;100483.53;;;-23.13;100.00
74631;BME280;63138;55.082;38.804;2024-01-07T06:18:52;100493.91;;;-23.10;100.00
74631;BME280;63138;55.082;38.804;2024-01-07T06:21:18;100504.34;;;-23.05;100.00
74631;BME280;63138;55.082;38.804;2024-01-07T06:23:43;100506.06;;;-23.06;100.00
74631;BME280;63138;55.082;38.804;2024-01-07T06:26:10;100503.38;;;-23.09;100.00
74631;BME280;63138;55.082;38.804;2024-01-07T06:28:36;100507.59;;;-23.11;100.00
74631;BME280;63138;55.082;38.804;2024-01-07T06:31:03;100508.63;;;-23.04;100.00
74631;BME280;63138;55.082;38.804;2024-01-07T06:33:29;100507.91;;;-23.00;100.00
74631;BME280;63138;55.082;38.804;2024-01-07T06:35:55;100500.25;;;-22.97;100.00
74631;BME280;63138;55.082;38.804;2024-01-07T06:38:22;100502.09;;;-22.93;100.00
74631;BME280;63138;55.082;38.804;2024-01-07T06:41:09;100505.34;;;-22.68;100.00
74631;BME280;63138;55.082;38.804;2024-01-07T06:43:35;100521.47;;;-22.44;100.00
74631;BME280;63138;55.082;38.804;2024-01-07T06:46:01;100511.13;;;-22.12;100.00
74631;BME280;63138;55.082;38.804;2024-01-07T06:48:27;100509.00;;;-21.93;100.00
74631;BME280;63138;55.082;38.804;2024-01-07T06:50:54;100519.97;;;-21.66;100.00
74631;BME280;63138;55.082;38.804;2024-01-07T06:53:20;100534.25;;;-21.45;100.00
74631;BME280;63138;55.082;38.804;2024-01-07T06:55:47;100539.50;;;-21.39;100.00
74631;BME280;63138;55.082;38.804;2024-01-07T06:58:13;100539.16;;;-21.16;100.00
74631;BME280;63138;55.082;38.804;2024-01-07T07:00:39;100546.50;;;-20.97;100.00
74631;BME280;63138;55.082;38.804;2024-01-07T07:03:06;100554.09;;;-20.62;100.00
74631;BME280;63138;55.082;38.804;2024-01-07T07:05:32;100545.78;;;-20.46;100.00
74631;BME280;63138;55.082;38.804;2024-01-07T07:07:58;100549.41;;;-20.37;100.00
74631;BME280;63138;55.082;38.804;2024-01-07T07:10:24;100546.47;;;-20.54;100.00
74631;BME280;63138;55.082;38.804;2024-01-07T07:12:51;100557.06;;;-20.85;100.00
74631;BME280;63138;55.082;38.804;2024-01-07T07:15:17;100554.97;;;-20.60;100.00
74631;BME280;63138;55.082;38.804;2024-01-07T07:17:43;100562.75;;;-21.00;100.00
74631;BME280;63138;55.082;38.804;2024-01-07T07:20:10;100570.47;;;-21.01;100.00
74631;BME280;63138;55.082;38.804;2024-01-07T07:22:37;100578.56;;;-20.86;100.00
74631;BME280;63138;55.082;38.804;2024-01-07T07:25:03;100578.16;;;-20.65;100.00
74631;BME280;63138;55.082;38.804;2024-01-07T07:27:31;100588.03;;;-19.99;100.00
74631;BME280;63138;55.082;38.804;2024-01-07T07:29:57;100581.06;;;-19.55;100.00
74631;BME280;63138;55.082;38.804;2024-01-07T07:32:23;100593.19;;;-19.51;100.00
74631;BME280;63138;55.082;38.804;2024-01-07T07:34:49;100601.69;;;-19.06;100.00
74631;BME280;63138;55.082;38.804;2024-01-07T07:37:16;100598.09;;;-19.14;100.00
74631;BME280;63138;55.082;38.804;2024-01-07T07:39:42;100600.19;;;-18.89;100.00
74631;BME280;63138;55.082;38.804;2024-01-07T07:42:08;100602.44;;;-18.51;100.00
74631;BME280;63138;55.082;38.804;2024-01-07T07:44:37;100596.50;;;-18.40;100.00
74631;BME280;63138;55.082;38.804;2024-01-07T07:47:04;100599.84;;;-18.52;100.00
74631;BME280;63138;55.082;38.804;2024-01-07T07:49:31;100593.22;;;-18.28;100.00
74631;BME280;63138;55.082;38.804;2024-01-07T07:51:57;100596.88;;;-18.10;100.00
74631;BME280;63138;55.082;38.804;2024-01-07T07:54:22;100609.81;;;-18.14;100.00
74631;BME280;63138;55.082;38.804;2024-01-07T07:56:49;100606.47;;;-18.04;100.00
74631;BME280;63138;55.082;38.804;2024-01-07T07:59:15;100614.25;;;-18.04;100.00
74631;BME280;63138;55.082;38.804;2024-01-07T08:01:41;100617.19;;;-17.68;100.00
74631;BME280;63138;55.082;38.804;2024-01-07T08:04:07;100616.97;;;-17.93;100.00
74631;BME280;63138;55.082;38.804;2024-01-07T08:06:34;100632.81;;;-17.65;100.00
74631;BME280;63138;55.082;38.804;2024-01-07T08:09:00;100633.47;;;-17.83;100.00
74631;BME280;63138;55.082;38.804;2024-01-07T08:11:26;100635.44;;;-17.61;100.00
74631;BME280;63138;55.082;38.804;2024-01-07T08:13:52;100638.66;;;-17.86;100.00
74631;BME280;63138;55.082;38.804;2024-01-07T08:16:18;100642.00;;;-17.97;100.00
74631;BME280;63138;55.082;38.804;2024-01-07T08:19:03;100648.19;;;-17.84;100.00
74631;BME280;63138;55.082;38.804;2024-01-07T08:21:28;100643.00;;;-17.87;100.00
74631;BME280;63138;55.082;38.804;2024-01-07T08:23:55;100641.19;;;-17.02;100.00
74631;BME280;63138;55.082;38.804;2024-01-07T08:26:21;100638.56;;;-17.04;100.00
74631;BME280;63138;55.082;38.804;2024-01-07T08:28:48;100642.63;;;-17.37;100.00
74631;BME280;63138;55.082;38.804;2024-01-07T08:31:16;100638.03;;;-17.62;100.00
74631;BME280;63138;55.082;38.804;2024-01-07T08:33:42;100636.34;;;-17.57;100.00
74631;BME280;63138;55.082;38.804;2024-01-07T08:36:08;100647.53;;;-17.66;100.00
74631;BME280;63138;55.082;38.804;2024-01-07T08:38:34;100653.38;;;-17.81;100.00
74631;BME280;63138;55.082;38.804;2024-01-07T08:41:01;100663.06;;;-17.69;100.00
74631;BME280;63138;55.082;38.804;2024-01-07T08:43:27;100656.44;;;-17.39;100.00
74631;BME280;63138;55.082;38.804;2024-01-07T08:45:53;100659.28;;;-17.13;100.00
74631;BME280;63138;55.082;38.804;2024-01-07T08:48:19;100655.34;;;-17.61;100.00
74631;BME280;63138;55.082;38.804;2024-01-07T08:50:45;100669.09;;;-17.68;100.00
74631;BME280;63138;55.082;38.804;2024-01-07T08:53:12;100670.00;;;-17.65;100.00
74631;BME280;63138;55.082;38.804;2024-01-07T08:55:38;100674.94;;;-17.93;100.00
74631;BME280;63138;55.082;38.804;2024-01-07T08:58:04;100674.16;;;-17.81;100.00
74631;BME280;63138;55.082;38.804;2024-01-07T09:00:31;100672.84;;;-17.42;100.00
74631;BME280;63138;55.082;38.804;2024-01-07T09:02:57;100674.25;;;-17.75;100.00
74631;BME280;63138;55.082;38.804;2024-01-07T09:05:24;100670.66;;;-17.86;100.00
74631;BME280;63138;55.082;38.804;2024-01-07T09:07:50;100669.78;;;-17.88;100.00
74631;BME280;63138;55.082;38.804;2024-01-07T09:10:16;100672.06;;;-18.14;100.00
74631;BME280;63138;55.082;38.804;2024-01-07T09:12:45;100680.50;;;-18.31;100.00
74631;BME280;63138;55.082;38.804;2024-01-07T09:15:18;100689.41;;;-18.10;100.00
74631;BME280;63138;55.082;38.804;2024-01-07T09:17:44;100687.88;;;-18.57;100.00
74631;BME280;63138;55.082;38.804;2024-01-07T09:20:11;100695.38;;;-18.75;100.00
74631;BME280;63138;55.082;38.804;2024-01-07T09:22:51;100690.25;;;-18.72;100.00
74631;BME280;63138;55.082;38.804;2024-01-07T09:25:24;100688.56;;;-18.69;100.00
74631;BME280;63138;55.082;38.804;2024-01-07T09:27:52;100696.09;;;-18.26;100.00
74631;BME280;63138;55.082;38.804;2024-01-07T09:30:18;100712.28;;;-18.42;100.00
74631;BME280;63138;55.082;38.804;2024-01-07T09:32:44;100709.06;;;-18.24;100.00
74631;BME280;63138;55.082;38.804;2024-01-07T09:35:10;100717.88;;;-18.13;100.00
74631;BME280;63138;55.082;38.804;2024-01-07T09:37:36;100723.22;;;-18.01;100.00
74631;BME280;63138;55.082;38.804;2024-01-07T09:40:03;100710.03;;;-18.18;100.00
74631;BME280;63138;55.082;38.804;2024-01-07T09:42:32;100715.53;;;-17.96;100.00
74631;BME280;63138;55.082;38.804;2024-01-07T09:45:02;100720.03;;;-17.78;100.00
74631;BME280;63138;55.082;38.804;2024-01-07T09:47:30;100719.50;;;-17.51;100.00
74631;BME280;63138;55.082;38.804;2024-01-07T09:49:57;100716.63;;;-17.74;100.00
74631;BME280;63138;55.082;38.804;2024-01-07T09:52:27;100717.47;;;-17.77;100.00
74631;BME280;63138;55.082;38.804;2024-01-07T09:54:58;100710.38;;;-17.92;100.00
74631;BME280;63138;55.082;38.804;2024-01-07T09:57:25;100712.94;;;-17.95;100.00
74631;BME280;63138;55.082;38.804;2024-01-07T09:59:52;100715.53;;;-17.93;100.00
74631;BME280;63138;55.082;38.804;2024-01-07T10:02:18;100715.00;;;-18.33;100.00
74631;BME280;63138;55.082;38.804;2024-01-07T10:04:44;100718.59;;;-18.22;100.00
74631;BME280;63138;55.082;38.804;2024-01-07T10:07:13;100709.03;;;-18.27;100.00
74631;BME280;63138;55.082;38.804;2024-01-07T10:09:40;100719.94;;;-18.50;100.00
74631;BME280;63138;55.082;38.804;2024-01-07T10:12:12;100730.44;;;-18.41;100.00
74631;BME280;63138;55.082;38.804;2024-01-07T10:14:39;100739.16;;;-18.37;100.00
74631;BME280;63138;55.082;38.804;2024-01-07T10:17:18;100730.41;;;-18.44;100.00
74631;BME280;63138;55.082;38.804;2024-01-07T10:19:44;100730.16;;;-18.61;100.00
74631;BME280;63138;55.082;38.804;2024-01-07T10:22:12;100734.47;;;-18.60;100.00
74631;BME280;63138;55.082;38.804;2024-01-07T10:24:40;100732.63;;;-18.69;100.00
74631;BME280;63138;55.082;38.804;2024-01-07T10:27:08;100734.16;;;-18.83;100.00
74631;BME280;63138;55.082;38.804;2024-01-07T10:29:34;100731.69;;;-18.72;100.00
74631;BME280;63138;55.082;38.804;2024-01-07T10:32:00;100740.00;;;-18.93;100.00
74631;BME280;63138;55.082;38.804;2024-01-07T10:34:32;100732.84;;;-19.08;100.00
74631;BME280;63138;55.082;38.804;2024-01-07T10:36:59;100732.13;;;-19.01;100.00
74631;BME280;63138;55.082;38.804;2024-01-07T10:39:29;100726.28;;;-19.36;100.00
74631;BME280;63138;55.082;38.804;2024-01-07T10:42:04;100730.41;;;-19.48;100.00
74631;BME280;63138;55.082;38.804;2024-01-07T10:44:34;100720.06;;;-19.48;100.00
74631;BME280;63138;55.082;38.804;2024-01-07T10:47:05;100719.94;;;-19.52;100.00
74631;BME280;63138;55.082;38.804;2024-01-07T10:49:35;100718.34;;;-19.46;100.00
74631;BME280;63138;55.082;38.804;2024-01-07T10:52:05;100723.50;;;-19.47;100.00
74631;BME280;63138;55.082;38.804;2024-01-07T10:54:34;100725.84;;;-19.59;100.00
74631;BME280;63138;55.082;38.804;2024-01-07T10:57:09;100729.66;;;-19.86;100.00
74631;BME280;63138;55.082;38.804;2024-01-07T10:59:38;100727.50;;;-20.06;100.00
74631;BME280;63138;55.082;38.804;2024-01-07T11:02:07;100721.25;;;-20.17;100.00
74631;BME280;63138;55.082;38.804;2024-01-07T11:04:56;100721.00;;;-20.28;100.00
74631;BME280;63138;55.082;38.804;2024-01-07T11:07:57;100727.75;;;-20.34;100.00
74631;BME280;63138;55.082;38.804;2024-01-07T11:10:39;100731.19;;;-20.35;100.00
74631;BME280;63138;55.082;38.804;2024-01-07T11:13:09;100726.63;;;-20.46;100.00
74631;BME280;63138;55.082;38.804;2024-01-07T11:18:18;100726.44;;;-20.55;100.00
74631;BME280;63138;55.082;38.804;2024-01-07T11:20:46;100719.16;;;-20.73;100.00
74631;BME280;63138;55.082;38.804;2024-01-07T11:23:31;100729.78;;;-20.95;100.00
74631;BME280;63138;55.082;38.804;2024-01-07T11:25:59;100736.56;;;-21.01;100.00
74631;BME280;63138;55.082;38.804;2024-01-07T11:31:12;100725.75;;;-21.21;100.00
74631;BME280;63138;55.082;38.804;2024-01-07T11:33:52;100725.66;;;-21.24;100.00
74631;BME280;63138;55.082;38.804;2024-01-07T11:36:26;100720.31;;;-21.30;100.00
74631;BME280;63138;55.082;38.804;2024-01-07T11:38:53;100720.22;;;-21.34;100.00
74631;BME280;63138;55.082;38.804;2024-01-07T11:41:20;100727.19;;;-21.30;100.00
74631;BME280;63138;55.082;38.804;2024-01-07T11:44:12;100733.16;;;-21.33;100.00
74631;BME280;63138;55.082;38.804;2024-01-07T11:46:41;100727.81;;;-21.39;100.00
74631;BME280;63138;55.082;38.804;2024-01-07T11:49:08;100729.69;;;-21.33;100.00
74631;BME280;63138;55.082;38.804;2024-01-07T11:51:34;100733.97;;;-21.34;100.00
74631;BME280;63138;55.082;38.804;2024-01-07T11:54:01;100736.47;;;-21.37;100.00
74631;BME280;63138;55.082;38.804;2024-01-07T11:56:28;100749.31;;;-21.40;100.00
74631;BME280;63138;55.082;38.804;2024-01-07T11:58:54;100753.63;;;-21.39;100.00
74631;BME280;63138;55.082;38.804;2024-01-07T12:01:22;100766.34;;;-21.47;100.00
74631;BME280;63138;55.082;38.804;2024-01-07T12:03:50;100754.31;;;-21.46;100.00
74631;BME280;63138;55.082;38.804;2024-01-07T12:06:16;100755.06;;;-21.50;100.00
74631;BME280;63138;55.082;38.804;2024-01-07T12:08:43;100764.69;;;-21.45;100.00
74631;BME280;63138;55.082;38.804;2024-01-07T12:11:11;100762.59;;;-21.58;100.00
74631;BME280;63138;55.082;38.804;2024-01-07T12:13:38;100759.13;;;-21.59;100.00
74631;BME280;63138;55.082;38.804;2024-01-07T12:16:08;100764.28;;;-21.60;100.00
74631;BME280;63138;55.082;38.804;2024-01-07T12:18:40;100777.97;;;-21.61;100.00
74631;BME280;63138;55.082;38.804;2024-01-07T12:21:08;100772.78;;;-21.63;100.00
74631;BME280;63138;55.082;38.804;2024-01-07T12:23:37;100761.50;;;-21.66;100.00
74631;BME280;63138;55.082;38.804;2024-01-07T12:26:08;100769.19;;;-21.68;100.00